createdAt,value
2022-11-17T00:01:28.648Z,9.67
2022-11-17T00:03:57.987Z,10.00
2022-11-17T00:06:25.974Z,10.57
2022-11-17T00:08:54.409Z,10.67
2022-11-17T00:11:22.435Z,10.83
2022-11-17T00:14:07.759Z,10.43
2022-11-17T00:16:36.208Z,10.87
2022-11-17T00:19:23.146Z,10.20
2022-11-17T00:21:51.141Z,10.23
2022-11-17T00:24:19.126Z,11.20
2022-11-17T00:27:01.004Z,10.33
2022-11-17T00:29:29.297Z,10.03
2022-11-17T00:32:14.966Z,10.20
2022-11-17T00:34:44.347Z,10.07
2022-11-17T00:37:13.847Z,10.40
2022-11-17T00:39:41.809Z,9.17
2022-11-17T00:42:09.774Z,9.60
2022-11-17T00:44:37.721Z,9.50
2022-11-17T00:47:05.749Z,9.53
2022-11-17T00:49:33.688Z,9.57
2022-11-17T00:52:03.177Z,9.80
2022-11-17T00:54:31.137Z,11.30
2022-11-17T00:56:59.156Z,10.97
2022-11-17T00:59:27.102Z,10.30
2022-11-17T01:01:55.120Z,11.07
2022-11-17T01:04:23.188Z,10.90
2022-11-17T01:06:51.265Z,10.80
2022-11-17T01:09:23.664Z,8.30
2022-11-17T01:11:53.785Z,10.13
2022-11-17T01:14:24.409Z,10.73
2022-11-17T01:16:52.620Z,10.43
2022-11-17T01:19:21.164Z,10.90
2022-11-17T01:21:49.537Z,10.30
2022-11-17T01:24:18.290Z,10.07
2022-11-17T01:26:49.605Z,9.43
2022-11-17T01:29:18.078Z,10.47
2022-11-17T01:31:50.252Z,9.97
2022-11-17T01:34:18.427Z,10.63
2022-11-17T01:37:03.745Z,10.70
2022-11-17T01:39:32.451Z,8.47
2022-11-17T01:42:04.715Z,10.03
2022-11-17T01:44:54.886Z,10.33
2022-11-17T01:47:27.417Z,10.17
2022-11-17T01:50:00.206Z,10.43
2022-11-17T01:52:30.528Z,11.03
2022-11-17T01:54:59.603Z,8.57
2022-11-17T01:57:34.491Z,10.27
2022-11-17T02:00:06.107Z,10.60
2022-11-17T02:02:35.479Z,9.80
2022-11-17T02:05:12.021Z,10.40
2022-11-17T02:07:41.783Z,10.77
2022-11-17T02:10:10.995Z,10.07
2022-11-17T02:12:40.884Z,10.80
2022-11-17T02:15:09.864Z,10.53
2022-11-17T02:17:40.173Z,9.43
2022-11-17T02:20:12.251Z,9.70
2022-11-17T02:23:13.885Z,9.60
2022-11-17T02:26:09.079Z,11.13
2022-11-17T02:28:44.246Z,9.33
2022-11-17T02:31:23.839Z,10.40
2022-11-17T02:33:59.733Z,9.33
2022-11-17T02:36:35.433Z,10.53
2022-11-17T02:39:13.281Z,10.80
2022-11-17T02:41:47.886Z,9.80
2022-11-17T02:44:20.688Z,10.33
2022-11-17T02:46:52.265Z,9.97
2022-11-17T02:49:23.869Z,11.33
2022-11-17T02:51:55.021Z,10.77
2022-11-17T02:54:24.336Z,11.50
2022-11-17T02:56:52.300Z,10.17
2022-11-17T02:59:24.906Z,8.73
2022-11-17T03:02:14.734Z,10.63
2022-11-17T03:04:53.723Z,10.13
2022-11-17T03:07:36.125Z,10.70
2022-11-17T03:10:13.903Z,9.63
2022-11-17T03:12:48.486Z,9.70
2022-11-17T03:15:26.855Z,11.13
2022-11-17T03:18:05.240Z,11.83
2022-11-17T03:20:40.449Z,11.43
2022-11-17T03:23:11.924Z,10.20
2022-11-17T03:25:43.214Z,10.87
2022-11-17T03:28:13.114Z,10.00
2022-11-17T03:30:46.727Z,10.87
2022-11-17T03:33:18.954Z,10.47
2022-11-17T03:35:52.080Z,11.57
2022-11-17T03:38:24.287Z,9.67
2022-11-17T03:40:54.992Z,11.17
2022-11-17T03:43:25.495Z,10.57
2022-11-17T03:45:58.844Z,10.67
2022-11-17T03:48:34.724Z,10.80
2022-11-17T03:51:09.258Z,9.67
2022-11-17T03:53:38.055Z,11.37
2022-11-17T03:56:15.499Z,10.17
2022-11-17T03:58:51.226Z,10.63
2022-11-17T04:01:21.895Z,11.03
2022-11-17T04:03:49.958Z,11.27
2022-11-17T04:06:17.954Z,11.37
2022-11-17T04:08:45.999Z,11.07
2022-11-17T04:11:31.330Z,11.40
2022-11-17T04:14:16.658Z,9.97
2022-11-17T04:16:46.028Z,10.37
2022-11-17T04:19:13.962Z,11.90
2022-11-17T04:21:41.927Z,11.03
2022-11-17T04:24:10.361Z,11.33
2022-11-17T04:26:55.944Z,11.10
2022-11-17T04:29:23.931Z,11.37
2022-11-17T04:31:53.254Z,10.70
2022-11-17T04:34:21.646Z,10.70
2022-11-17T04:36:50.869Z,11.70
2022-11-17T04:39:18.834Z,11.27
2022-11-17T04:41:56.774Z,10.10
2022-11-17T04:44:28.241Z,11.20
2022-11-17T04:46:58.294Z,11.07
2022-11-17T04:49:27.222Z,10.87
2022-11-17T04:51:55.921Z,11.63
2022-11-17T04:54:25.556Z,11.27
2022-11-17T04:56:55.222Z,10.30
2022-11-17T04:59:24.098Z,10.93
2022-11-17T05:01:52.374Z,11.03
2022-11-17T05:04:36.495Z,10.50
2022-11-17T05:07:05.269Z,10.90
2022-11-17T05:09:33.667Z,11.60
2022-11-17T05:12:19.484Z,10.37
2022-11-17T05:14:50.148Z,9.33
2022-11-17T05:17:17.763Z,9.93
2022-11-17T05:19:49.014Z,10.23
2022-11-17T05:22:36.569Z,8.77
2022-11-17T05:25:05.981Z,10.10
2022-11-17T05:27:34.563Z,10.80
2022-11-17T05:30:02.775Z,11.07
2022-11-17T05:32:30.944Z,10.43
2022-11-17T05:35:00.511Z,9.70
2022-11-17T05:37:28.676Z,9.23
2022-11-17T05:39:56.838Z,9.00
2022-11-17T05:42:25.124Z,10.20
2022-11-17T05:44:54.957Z,9.43
2022-11-17T05:47:23.085Z,9.67
2022-11-17T05:49:51.360Z,9.97
2022-11-17T05:52:21.088Z,8.63
2022-11-17T05:54:49.316Z,10.27
2022-11-17T05:57:26.664Z,10.87
2022-11-17T06:00:00.073Z,9.87
2022-11-17T06:02:31.424Z,9.80
2022-11-17T06:05:00.848Z,10.13
2022-11-17T06:07:30.650Z,10.77
2022-11-17T06:09:59.019Z,9.67
2022-11-17T06:12:27.251Z,9.77
2022-11-17T06:14:55.447Z,9.67
2022-11-17T06:17:27.856Z,8.87
2022-11-17T06:20:00.049Z,8.93
2022-11-17T06:22:30.381Z,9.50
2022-11-17T06:24:59.736Z,9.50
2022-11-17T06:27:29.215Z,10.60
2022-11-17T06:29:59.208Z,8.93
2022-11-17T06:32:29.560Z,9.70
2022-11-17T06:34:58.504Z,9.50
2022-11-17T06:37:26.631Z,9.10
2022-11-17T06:39:56.224Z,10.10
2022-11-17T06:42:44.952Z,9.77
2022-11-17T06:45:13.676Z,9.00
2022-11-17T06:47:42.176Z,9.80
2022-11-17T06:50:11.467Z,9.57
2022-11-17T06:52:39.795Z,9.03
2022-11-17T07:02:59.704Z,9.67
2022-11-17T07:05:29.828Z,9.27
2022-11-17T07:08:35.287Z,8.73
2022-11-17T07:16:12.894Z,9.47
2022-11-17T07:18:42.668Z,8.77
2022-11-17T07:21:13.637Z,9.30
2022-11-17T07:23:44.737Z,10.33
2022-11-17T07:26:13.245Z,9.70
2022-11-17T07:28:41.305Z,9.27
2022-11-17T07:31:10.797Z,10.47
2022-11-17T07:33:38.861Z,9.57
2022-11-17T07:36:09.509Z,10.30
2022-11-17T07:38:40.527Z,10.40
2022-11-17T07:41:09.796Z,7.50
2022-11-17T07:43:38.400Z,9.40
2022-11-17T07:46:07.185Z,9.63
2022-11-17T07:48:35.707Z,8.50
2022-11-17T07:51:04.927Z,9.70
2022-11-17T07:53:35.038Z,9.13
2022-11-17T07:56:06.421Z,9.73
2022-11-17T07:58:34.902Z,9.33
2022-11-17T08:01:06.409Z,8.87
2022-11-17T08:03:34.798Z,10.30
2022-11-17T08:06:03.534Z,8.83
2022-11-17T08:08:31.590Z,9.53
2022-11-17T08:11:03.801Z,9.50
2022-11-17T08:13:33.413Z,7.80
2022-11-17T08:16:01.489Z,9.30
2022-11-17T08:18:30.105Z,9.53
2022-11-17T08:21:03.857Z,9.40
2022-11-17T08:23:32.088Z,10.53
2022-11-17T08:26:00.423Z,9.50
2022-11-17T08:28:28.430Z,10.07
2022-11-17T08:30:58.155Z,9.73
2022-11-17T08:33:26.241Z,10.30
2022-11-17T08:35:57.445Z,9.27
2022-11-17T08:38:28.919Z,10.03
2022-11-17T08:40:57.341Z,9.53
2022-11-17T08:43:25.490Z,9.87
2022-11-17T08:45:53.488Z,9.20
2022-11-17T08:48:23.328Z,9.00
2022-11-17T08:50:51.780Z,10.13
2022-11-17T08:53:22.002Z,9.27
2022-11-17T08:55:50.796Z,10.63
2022-11-17T08:58:19.020Z,9.97
2022-11-17T09:00:47.795Z,10.00
2022-11-17T09:03:16.569Z,11.10
2022-11-17T09:05:48.387Z,9.37
2022-11-17T09:08:43.819Z,10.67
2022-11-17T09:11:07.017Z,12.00
2022-11-17T09:13:36.335Z,10.97
2022-11-17T09:16:04.890Z,9.57
2022-11-17T09:18:33.054Z,10.33
2022-11-17T09:21:04.288Z,8.47
2022-11-17T09:23:32.797Z,9.33
2022-11-17T09:26:04.901Z,10.10
2022-11-17T09:28:33.534Z,9.90
2022-11-17T09:31:07.538Z,8.90
2022-11-17T09:33:35.693Z,9.13
2022-11-17T09:36:07.285Z,7.90
2022-11-17T09:38:36.087Z,9.03
2022-11-17T09:41:13.461Z,8.63
2022-11-17T09:43:47.422Z,11.30
2022-11-17T09:46:20.945Z,9.77
2022-11-17T09:48:54.785Z,11.87
2022-11-17T09:51:27.336Z,11.90
2022-11-17T09:54:00.542Z,8.97
2022-11-17T09:56:28.882Z,8.20
2022-11-17T09:59:00.485Z,8.07
2022-11-17T10:01:30.118Z,9.57
2022-11-17T10:04:00.157Z,13.03
2022-11-17T10:06:31.925Z,10.00
2022-11-17T10:09:03.124Z,9.37
2022-11-17T10:11:32.857Z,9.17
2022-11-17T10:14:04.446Z,7.33
2022-11-17T10:16:32.555Z,7.10
2022-11-17T10:19:03.427Z,6.60
2022-11-17T10:21:32.889Z,7.03
2022-11-17T10:24:01.058Z,7.17
2022-11-17T10:26:29.165Z,6.87
2022-11-17T10:29:16.639Z,7.43
2022-11-17T10:31:46.915Z,4.87
2022-11-17T10:34:37.021Z,6.13
2022-11-17T10:37:30.244Z,5.93
2022-11-17T10:40:20.615Z,6.83
2022-11-17T10:43:01.784Z,5.67
2022-11-17T10:45:30.496Z,4.70
2022-11-17T10:48:18.243Z,6.10
2022-11-17T10:50:53.774Z,5.27
2022-11-17T10:53:27.321Z,6.07
2022-11-17T10:55:58.981Z,6.37
2022-11-17T10:58:28.913Z,5.07
2022-11-17T11:00:59.075Z,6.03
2022-11-17T11:03:30.113Z,6.17
2022-11-17T11:06:00.972Z,5.37
2022-11-17T11:08:39.835Z,5.10
2022-11-17T11:11:13.384Z,4.53
2022-11-17T11:13:47.348Z,5.40
2022-11-17T11:16:15.386Z,4.97
2022-11-17T11:18:43.427Z,4.57
2022-11-17T11:21:19.334Z,4.70
2022-11-17T11:23:59.760Z,4.80
2022-11-17T11:26:49.287Z,5.27
2022-11-17T11:29:27.353Z,4.90
2022-11-17T11:32:13.158Z,5.33
2022-11-17T11:35:23.910Z,4.83
2022-11-17T11:37:58.480Z,5.17
2022-11-17T11:40:32.806Z,2.80
2022-11-17T11:43:06.113Z,3.57
2022-11-17T11:45:46.858Z,4.67
2022-11-17T11:48:19.967Z,4.47
2022-11-17T11:50:55.345Z,4.27
2022-11-17T11:53:32.084Z,4.27
2022-11-17T11:56:14.332Z,3.40
2022-11-17T11:58:47.542Z,4.20
2022-11-17T12:01:18.831Z,4.03
2022-11-17T12:04:05.455Z,4.80
2022-11-17T12:06:42.431Z,3.73
2022-11-17T12:09:25.332Z,4.07
2022-11-17T12:12:01.497Z,4.20
2022-11-17T12:14:30.805Z,4.77
2022-11-17T12:17:07.724Z,4.70
2022-11-17T12:19:51.048Z,4.50
2022-11-17T12:22:43.506Z,4.93
2022-11-17T12:25:18.580Z,3.80
2022-11-17T12:27:50.274Z,4.50
2022-11-17T12:30:53.756Z,4.20
2022-11-17T12:33:22.741Z,4.57
2022-11-17T12:36:30.943Z,4.47
2022-11-17T12:39:01.144Z,4.20
2022-11-17T12:42:07.491Z,3.73
2022-11-17T12:45:05.347Z,4.87
2022-11-17T12:47:35.410Z,4.60
2022-11-17T12:50:34.002Z,4.20
2022-11-17T12:53:25.765Z,3.87
2022-11-17T12:56:09.932Z,4.70
2022-11-17T12:58:50.042Z,4.03
2022-11-17T13:01:26.355Z,5.47
2022-11-17T13:03:59.017Z,4.47
2022-11-17T13:06:36.320Z,4.80
2022-11-17T13:09:07.234Z,4.30
2022-11-17T13:11:36.115Z,4.37
2022-11-17T13:14:13.830Z,4.63
2022-11-17T13:16:47.228Z,3.70
2022-11-17T13:19:35.438Z,4.23
2022-11-17T13:22:06.161Z,5.00
2022-11-17T13:24:36.409Z,4.13
2022-11-17T13:27:07.353Z,4.50
2022-11-17T13:29:35.800Z,5.10
2022-11-17T13:32:16.751Z,4.10
2022-11-17T13:34:49.899Z,4.30
2022-11-17T13:37:20.675Z,4.20
2022-11-17T13:40:00.326Z,3.97
2022-11-17T13:42:31.651Z,4.07
2022-11-17T13:45:02.698Z,4.07
2022-11-17T13:47:46.542Z,4.33
2022-11-17T13:50:32.980Z,3.80
2022-11-17T13:53:03.118Z,5.30
2022-11-17T13:55:31.556Z,4.50
2022-11-17T13:58:03.687Z,4.50
2022-11-17T14:00:32.270Z,4.50
2022-11-17T14:03:04.078Z,4.30
2022-11-17T14:05:33.657Z,4.30
2022-11-17T14:08:13.142Z,3.93
2022-11-17T14:10:41.720Z,4.17
2022-11-17T14:13:30.279Z,4.77
2022-11-17T14:16:00.719Z,4.90
2022-11-17T14:18:36.984Z,4.47
2022-11-17T14:21:09.948Z,5.20
2022-11-17T14:23:38.563Z,5.33
2022-11-17T14:26:07.154Z,5.10
2022-11-17T14:28:35.189Z,4.50
2022-11-17T14:31:03.225Z,3.67
2022-11-17T14:33:31.304Z,5.00
2022-11-17T14:36:01.040Z,5.43
2022-11-17T14:38:29.502Z,4.63
2022-11-17T14:40:59.560Z,5.20
2022-11-17T14:43:27.623Z,5.63
2022-11-17T14:45:55.688Z,5.03
2022-11-17T14:48:23.846Z,4.80
2022-11-17T14:50:58.098Z,4.97
2022-11-17T14:53:28.081Z,3.93
2022-11-17T14:55:56.099Z,4.67
2022-11-17T14:58:24.172Z,4.90
2022-11-17T15:00:52.236Z,5.50
2022-11-17T15:03:20.368Z,5.10
2022-11-17T15:05:48.522Z,4.83
2022-11-17T15:08:16.585Z,4.83
2022-11-17T15:10:46.990Z,5.13
2022-11-17T15:13:15.009Z,5.43
2022-11-17T15:15:43.686Z,4.67
2022-11-17T15:18:12.628Z,5.27
2022-11-17T15:20:40.689Z,5.37
2022-11-17T15:23:08.776Z,5.17
2022-11-17T15:25:38.888Z,4.97
2022-11-17T15:28:08.368Z,4.40
2022-11-17T15:30:36.395Z,4.30
2022-11-17T15:33:04.627Z,4.13
2022-11-17T15:35:32.682Z,4.90
2022-11-17T15:38:00.690Z,5.23
2022-11-17T15:40:28.826Z,5.63
2022-11-17T15:42:56.851Z,4.93
2022-11-17T15:45:26.263Z,5.90
2022-11-17T15:48:18.818Z,5.60
2022-11-17T15:50:47.174Z,5.23
2022-11-17T15:53:15.458Z,5.07
2022-11-17T15:55:43.514Z,4.03
2022-11-17T15:58:11.536Z,5.57
2022-11-17T16:00:41.102Z,5.30
2022-11-17T16:03:09.211Z,5.57
2022-11-17T16:05:37.242Z,4.17
2022-11-17T16:08:05.460Z,5.37
2022-11-17T16:10:33.483Z,5.53
2022-11-17T16:13:01.649Z,5.03
2022-11-17T16:15:29.962Z,5.27
2022-11-17T16:17:59.471Z,4.97
2022-11-17T16:20:27.563Z,5.00
2022-11-17T16:22:55.614Z,5.37
2022-11-17T16:25:23.627Z,5.03
2022-11-17T16:27:51.710Z,5.37
2022-11-17T16:30:19.834Z,5.47
2022-11-17T16:32:47.879Z,4.83
2022-11-17T16:35:17.314Z,5.07
2022-11-17T16:37:45.424Z,4.57
2022-11-17T16:40:13.642Z,4.87
2022-11-17T16:42:42.136Z,5.57
2022-11-17T16:45:10.385Z,4.63
2022-11-17T16:47:38.444Z,3.70
2022-11-17T16:50:07.248Z,5.10
2022-11-17T16:52:36.987Z,5.27
2022-11-17T16:55:05.596Z,5.47
2022-11-17T16:57:34.156Z,5.20
2022-11-17T17:00:02.305Z,5.10
2022-11-17T17:02:30.479Z,5.40
2022-11-17T17:04:58.549Z,5.40
2022-11-17T17:07:26.712Z,5.37
2022-11-17T17:09:56.292Z,4.70
2022-11-17T17:12:24.357Z,5.40
2022-11-17T17:14:52.474Z,5.20
2022-11-17T17:17:22.524Z,5.30
2022-11-17T17:19:50.592Z,5.23
2022-11-17T17:22:18.718Z,5.00
2022-11-17T17:24:46.694Z,5.83
2022-11-17T17:27:16.798Z,5.77
2022-11-17T17:29:45.125Z,5.20
2022-11-17T17:32:14.257Z,5.87
2022-11-17T17:34:42.223Z,5.93
2022-11-17T17:37:10.301Z,5.20
2022-11-17T17:39:38.315Z,5.30
2022-11-17T17:42:06.425Z,4.10
2022-11-17T17:44:35.865Z,5.37
2022-11-17T17:47:03.882Z,5.73
2022-11-17T17:49:31.902Z,5.73
2022-11-17T17:51:59.953Z,8.23
2022-11-17T17:54:27.939Z,6.20
2022-11-17T17:56:57.623Z,6.10
2022-11-17T17:59:25.677Z,6.27
2022-11-17T18:01:55.122Z,5.97
2022-11-17T18:04:23.275Z,5.60
2022-11-17T18:06:51.361Z,5.23
2022-11-17T18:09:20.447Z,6.20
2022-11-17T18:11:50.356Z,6.03
2022-11-17T18:14:24.042Z,4.50
2022-11-17T18:16:54.044Z,5.67
2022-11-17T18:19:24.866Z,6.40
2022-11-17T18:21:56.348Z,6.30
2022-11-17T18:24:24.389Z,5.77
2022-11-17T18:26:52.383Z,6.30
2022-11-17T18:29:20.646Z,6.17
2022-11-17T18:31:49.573Z,6.77
2022-11-17T18:34:21.736Z,7.50
2022-11-17T18:36:50.248Z,7.07
2022-11-17T18:39:18.826Z,7.13
2022-11-17T18:41:49.703Z,6.93
2022-11-17T18:44:19.791Z,7.43
2022-11-17T18:46:48.658Z,7.17
2022-11-17T18:49:18.582Z,7.00
2022-11-17T18:51:47.320Z,7.53
2022-11-17T18:54:16.165Z,7.53
2022-11-17T18:56:44.584Z,7.50
2022-11-17T18:59:12.773Z,8.03
2022-11-17T19:01:43.005Z,6.80
2022-11-17T19:04:12.742Z,7.07
2022-11-17T19:06:42.398Z,7.30
2022-11-17T19:09:15.635Z,7.37
2022-11-17T19:11:43.934Z,7.87
2022-11-17T19:14:11.981Z,7.57
2022-11-17T19:16:44.432Z,7.63
2022-11-17T19:19:14.571Z,7.03
2022-11-17T19:21:44.679Z,7.27
2022-11-17T19:24:13.142Z,7.37
2022-11-17T19:26:41.229Z,7.00
2022-11-17T19:29:16.697Z,6.87
2022-11-17T19:31:45.514Z,7.00
2022-11-17T19:34:16.172Z,7.13
2022-11-17T19:36:45.814Z,6.83
2022-11-17T19:39:14.901Z,6.50
2022-11-17T19:41:43.667Z,7.23
2022-11-17T19:44:11.808Z,6.87
2022-11-17T19:46:39.921Z,6.80
2022-11-17T19:49:08.730Z,5.93
2022-11-17T19:51:43.085Z,7.17
2022-11-17T19:54:16.505Z,7.10
2022-11-17T19:56:44.529Z,6.67
2022-11-17T19:59:16.504Z,7.17
2022-11-17T20:01:45.625Z,7.43
2022-11-17T20:04:13.741Z,7.13
2022-11-17T20:06:41.793Z,7.50
2022-11-17T20:09:10.917Z,6.70
2022-11-17T20:11:41.251Z,8.47
2022-11-17T20:14:09.618Z,8.07
2022-11-17T20:16:38.786Z,8.20
2022-11-17T20:19:06.958Z,7.60
2022-11-17T20:21:35.003Z,8.83
2022-11-17T20:24:03.317Z,7.47
2022-11-17T20:26:32.851Z,8.13
2022-11-17T20:29:02.763Z,9.30
2022-11-17T20:31:32.542Z,8.63
2022-11-17T20:34:02.348Z,9.37
2022-11-17T20:36:32.633Z,7.90
2022-11-17T20:39:02.086Z,9.07
2022-11-17T20:41:30.468Z,9.77
2022-11-17T20:44:01.876Z,8.90
2022-11-17T20:46:30.212Z,9.97
2022-11-17T20:48:58.251Z,7.07
2022-11-17T20:51:26.993Z,9.07
2022-11-17T20:53:55.168Z,10.00
2022-11-17T20:56:23.212Z,9.87
2022-11-17T20:58:51.347Z,9.30
2022-11-17T21:01:23.900Z,9.40
2022-11-17T21:03:52.215Z,9.70
2022-11-17T21:06:23.360Z,9.83
2022-11-17T21:08:51.654Z,8.03
2022-11-17T21:11:39.571Z,8.80
2022-11-17T21:14:09.251Z,8.50
2022-11-17T21:16:40.322Z,7.53
2022-11-17T21:19:09.084Z,8.00
2022-11-17T21:21:37.419Z,8.90
2022-11-17T21:24:06.092Z,8.70
2022-11-17T21:26:34.672Z,7.77
2022-11-17T21:29:06.421Z,8.93
2022-11-17T21:31:35.458Z,8.50
2022-11-17T21:34:07.140Z,8.77
2022-11-17T21:36:36.738Z,7.90
2022-11-17T21:39:05.611Z,8.60
2022-11-17T21:41:36.209Z,8.13
2022-11-17T21:44:04.639Z,7.97
2022-11-17T21:46:39.320Z,8.00
2022-11-17T21:49:24.874Z,7.87
2022-11-17T21:52:03.386Z,8.03
2022-11-17T21:54:31.433Z,8.10
2022-11-17T21:56:59.431Z,9.00
2022-11-17T21:59:27.469Z,8.80
2022-11-17T22:01:55.838Z,8.20
2022-11-17T22:04:25.314Z,9.03
2022-11-17T22:06:54.722Z,7.73
2022-11-17T22:09:22.815Z,8.13
2022-11-17T22:11:51.415Z,8.30
2022-11-17T22:14:20.918Z,8.07
2022-11-17T22:16:51.804Z,6.70
2022-11-17T22:19:21.138Z,8.37
2022-11-17T22:21:52.754Z,7.93
2022-11-17T22:24:21.434Z,8.73
2022-11-17T22:26:51.466Z,7.97
2022-11-17T22:29:22.139Z,8.20
2022-11-17T22:31:50.969Z,8.80
2022-11-17T22:34:19.710Z,9.30
2022-11-17T22:36:47.973Z,8.97
2022-11-17T22:39:17.912Z,7.33
2022-11-17T22:41:46.136Z,8.83
2022-11-17T22:44:14.915Z,9.40
2022-11-17T22:46:43.935Z,9.23
2022-11-17T22:49:12.090Z,8.63
2022-11-17T22:51:57.373Z,8.50
2022-11-17T22:54:26.772Z,8.00
2022-11-17T22:56:54.809Z,8.77
2022-11-17T22:59:24.020Z,9.47
2022-11-17T23:01:52.151Z,8.87
2022-11-17T23:04:20.175Z,7.63
2022-11-17T23:06:48.413Z,6.93
2022-11-17T23:09:17.135Z,8.07
2022-11-17T23:11:46.873Z,8.77
2022-11-17T23:14:15.438Z,8.47
2022-11-17T23:16:43.572Z,8.93
2022-11-17T23:19:13.920Z,8.73
2022-11-17T23:21:41.934Z,8.07
2022-11-17T23:24:12.818Z,8.73
2022-11-17T23:26:41.645Z,9.00
2022-11-17T23:29:11.308Z,8.67
2022-11-17T23:31:39.292Z,8.90
2022-11-17T23:34:10.006Z,8.53
2022-11-17T23:36:38.070Z,9.20
2022-11-17T23:39:06.099Z,9.77
2022-11-17T23:41:34.184Z,8.33
2022-11-17T23:44:02.351Z,8.53
2022-11-17T23:46:32.063Z,8.80
2022-11-17T23:49:00.082Z,8.00
2022-11-17T23:51:29.870Z,8.70
2022-11-17T23:54:00.310Z,8.27
2022-11-17T23:56:28.360Z,8.80
2022-11-17T23:58:56.552Z,8.00
